sensor_id;sensor_type;location;lat;lon;timestamp;pressure;altitude;pressure_sealevel;temperature;humidity
74913;BME280;63878;55.624;37.304;2023-07-31T00:00:21;98258.44;;;13.66;57.28
74913;BME280;63878;55.624;37.304;2023-07-31T00:10:21;98257.47;;;13.59;57.34
74913;BME280;63878;55.624;37.304;2023-07-31T00:20:22;98258.75;;;13.40;57.69
74913;BME280;63878;55.624;37.304;2023-07-31T00:30:23;98264.53;;;13.13;58.57
74913;BME280;63878;55.624;37.304;2023-07-31T00:40:23;98272.34;;;13.06;58.81
74913;BME280;63878;55.624;37.304;2023-07-31T00:50:25;98260.94;;;13.06;59.02
74913;BME280;63878;55.624;37.304;2023-07-31T01:00:25;98250.84;;;13.01;58.77
74913;BME280;63878;55.624;37.304;2023-07-31T01:10:35;98253.56;;;13.16;58.55
74913;BME280;63878;55.624;37.304;2023-07-31T01:20:37;98246.56;;;12.92;59.34
74913;BME280;63878;55.624;37.304;2023-07-31T01:30:44;98253.63;;;13.08;58.87
74913;BME280;63878;55.624;37.304;2023-07-31T01:40:52;98254.50;;;12.92;59.19
74913;BME280;63878;55.624;37.304;2023-07-31T01:50:52;98258.22;;;12.66;59.41
74913;BME280;63878;55.624;37.304;2023-07-31T02:00:53;98241.03;;;12.62;60.25
74913;BME280;63878;55.624;37.304;2023-07-31T02:10:54;98238.22;;;12.72;59.68
74913;BME280;63878;55.624;37.304;2023-07-31T02:20:54;98251.81;;;13.08;58.88
74913;BME280;63878;55.624;37.304;2023-07-31T02:30:55;98242.16;;;13.15;57.77
74913;BME280;63878;55.624;37.304;2023-07-31T02:40:55;98239.31;;;13.17;57.82
74913;BME280;63878;55.624;37.304;2023-07-31T02:50:56;98255.25;;;13.71;56.09
74913;BME280;63878;55.624;37.304;2023-07-31T03:00:58;98212.69;;;13.87;55.19
74913;BME280;63878;55.624;37.304;2023-07-31T03:10:59;98232.09;;;14.40;54.24
74913;BME280;63878;55.624;37.304;2023-07-31T03:20:59;98227.13;;;14.96;53.11
74913;BME280;63878;55.624;37.304;2023-07-31T03:31:00;98241.66;;;15.73;50.52
74913;BME280;63878;55.624;37.304;2023-07-31T03:41:00;98248.16;;;16.34;48.42
74913;BME280;63878;55.624;37.304;2023-07-31T03:51:01;98253.63;;;16.54;49.03
74913;BME280;63878;55.624;37.304;2023-07-31T04:01:01;98262.72;;;16.73;48.32
74913;BME280;63878;55.624;37.304;2023-07-31T04:11:02;98271.19;;;17.18;49.27
74913;BME280;63878;55.624;37.304;2023-07-31T04:21:02;98263.94;;;17.66;47.43
74913;BME280;63878;55.624;37.304;2023-07-31T04:31:03;98266.66;;;18.39;45.84
74913;BME280;63878;55.624;37.304;2023-07-31T04:41:04;98269.72;;;18.82;43.89
74913;BME280;63878;55.624;37.304;2023-07-31T04:51:04;98283.41;;;19.06;43.09
74913;BME280;63878;55.624;37.304;2023-07-31T05:01:05;98269.56;;;19.22;42.66
74913;BME280;63878;55.624;37.304;2023-07-31T05:11:05;98281.38;;;19.01;42.31
74913;BME280;63878;55.624;37.304;2023-07-31T05:21:06;98287.59;;;19.46;40.71
74913;BME280;63878;55.624;37.304;2023-07-31T05:31:06;98287.09;;;20.26;38.85
74913;BME280;63878;55.624;37.304;2023-07-31T05:41:07;98287.59;;;20.85;39.72
74913;BME280;63878;55.624;37.304;2023-07-31T05:51:07;98301.22;;;21.38;37.24
74913;BME280;63878;55.624;37.304;2023-07-31T06:01:08;98292.22;;;21.93;41.15
74913;BME280;63878;55.624;37.304;2023-07-31T06:11:08;98282.03;;;22.48;42.94
74913;BME280;63878;55.624;37.304;2023-07-31T06:21:09;98289.75;;;23.03;41.35
74913;BME280;63878;55.624;37.304;2023-07-31T06:31:10;98270.94;;;22.56;39.02
74913;BME280;63878;55.624;37.304;2023-07-31T06:41:10;98303.59;;;22.83;35.99
74913;BME280;63878;55.624;37.304;2023-07-31T06:51:11;98299.91;;;23.13;40.83
74913;BME280;63878;55.624;37.304;2023-07-31T07:01:12;98305.59;;;23.28;40.12
74913;BME280;63878;55.624;37.304;2023-07-31T07:11:12;98310.31;;;23.21;38.88
74913;BME280;63878;55.624;37.304;2023-07-31T07:21:13;98299.84;;;22.73;39.07
74913;BME280;63878;55.624;37.304;2023-07-31T07:31:13;98290.88;;;21.72;36.88
74913;BME280;63878;55.624;37.304;2023-07-31T07:41:14;98308.22;;;21.21;33.50
74913;BME280;63878;55.624;37.304;2023-07-31T07:51:15;98309.44;;;21.06;36.57
74913;BME280;63878;55.624;37.304;2023-07-31T08:01:15;98312.06;;;20.95;33.99
74913;BME280;63878;55.624;37.304;2023-07-31T08:11:16;98301.75;;;20.67;33.77
74913;BME280;63878;55.624;37.304;2023-07-31T08:21:16;98311.16;;;20.58;34.36
74913;BME280;63878;55.624;37.304;2023-07-31T08:31:17;98306.47;;;20.71;34.23
74913;BME280;63878;55.624;37.304;2023-07-31T08:41:18;98303.38;;;20.49;34.10
74913;BME280;63878;55.624;37.304;2023-07-31T08:51:19;98315.06;;;21.42;40.59
74913;BME280;63878;55.624;37.304;2023-07-31T09:01:20;98324.50;;;20.39;33.42
74913;BME280;63878;55.624;37.304;2023-07-31T09:11:21;98322.03;;;20.13;38.75
74913;BME280;63878;55.624;37.304;2023-07-31T09:21:23;98317.56;;;21.55;42.71
74913;BME280;63878;55.624;37.304;2023-07-31T09:31:33;98320.72;;;21.82;41.72
74913;BME280;63878;55.624;37.304;2023-07-31T09:41:40;98311.63;;;21.65;41.37
74913;BME280;63878;55.624;37.304;2023-07-31T09:51:42;98320.19;;;21.73;42.18
74913;BME280;63878;55.624;37.304;2023-07-31T10:01:45;98315.78;;;21.79;41.29
74913;BME280;63878;55.624;37.304;2023-07-31T10:11:55;98309.88;;;22.00;40.45
74913;BME280;63878;55.624;37.304;2023-07-31T10:21:56;98317.41;;;21.50;35.75
74913;BME280;63878;55.624;37.304;2023-07-31T10:31:58;98318.25;;;21.50;35.68
74913;BME280;63878;55.624;37.304;2023-07-31T10:41:59;98323.50;;;21.39;35.61
74913;BME280;63878;55.624;37.304;2023-07-31T10:52:12;98304.56;;;21.52;36.10
74913;BME280;63878;55.624;37.304;2023-07-31T11:02:26;98333.28;;;21.70;35.77
74913;BME280;63878;55.624;37.304;2023-07-31T11:12:27;98317.25;;;21.63;35.69
74913;BME280;63878;55.624;37.304;2023-07-31T11:22:30;98320.03;;;21.68;36.21
74913;BME280;63878;55.624;37.304;2023-07-31T11:32:30;98325.31;;;21.63;36.69
74913;BME280;63878;55.624;37.304;2023-07-31T11:42:31;98313.22;;;21.54;38.05
74913;BME280;63878;55.624;37.304;2023-07-31T11:52:38;98325.97;;;22.19;36.66
74913;BME280;63878;55.624;37.304;2023-07-31T12:02:40;98320.19;;;22.03;37.27
74913;BME280;63878;55.624;37.304;2023-07-31T12:12:41;98332.41;;;22.18;36.74
74913;BME280;63878;55.624;37.304;2023-07-31T12:22:41;98335.19;;;22.11;37.28
74913;BME280;63878;55.624;37.304;2023-07-31T12:32:42;98330.63;;;22.11;37.44
74913;BME280;63878;55.624;37.304;2023-07-31T12:42:42;98334.72;;;22.14;37.00
74913;BME280;63878;55.624;37.304;2023-07-31T12:52:43;98334.97;;;22.24;37.02
74913;BME280;63878;55.624;37.304;2023-07-31T13:02:43;98330.75;;;22.28;36.57
74913;BME280;63878;55.624;37.304;2023-07-31T13:12:44;98356.31;;;22.07;37.08
74913;BME280;63878;55.624;37.304;2023-07-31T13:22:45;98352.81;;;21.77;37.03
74913;BME280;63878;55.624;37.304;2023-07-31T13:32:45;98349.97;;;21.72;37.43
74913;BME280;63878;55.624;37.304;2023-07-31T13:42:46;98354.16;;;21.68;38.23
74913;BME280;63878;55.624;37.304;2023-07-31T13:52:46;98341.09;;;21.71;38.61
74913;BME280;63878;55.624;37.304;2023-07-31T14:02:47;98345.56;;;21.77;38.63
74913;BME280;63878;55.624;37.304;2023-07-31T14:12:47;98336.59;;;21.83;38.59
74913;BME280;63878;55.624;37.304;2023-07-31T14:22:48;98324.69;;;21.91;39.21
74913;BME280;63878;55.624;37.304;2023-07-31T14:32:49;98334.13;;;22.12;40.25
74913;BME280;63878;55.624;37.304;2023-07-31T14:42:49;98321.81;;;22.04;40.22
74913;BME280;63878;55.624;37.304;2023-07-31T14:52:49;98320.38;;;21.90;39.14
74913;BME280;63878;55.624;37.304;2023-07-31T15:02:50;98322.19;;;21.78;39.00
74913;BME280;63878;55.624;37.304;2023-07-31T15:12:51;98322.69;;;21.56;39.30
74913;BME280;63878;55.624;37.304;2023-07-31T15:22:51;98320.34;;;21.48;39.59
74913;BME280;63878;55.624;37.304;2023-07-31T15:32:52;98320.31;;;21.30;40.32
74913;BME280;63878;55.624;37.304;2023-07-31T15:42:53;98318.16;;;20.59;41.12
74913;BME280;63878;55.624;37.304;2023-07-31T15:52:54;98305.25;;;20.92;41.17
74913;BME280;63878;55.624;37.304;2023-07-31T16:02:55;98325.66;;;20.93;41.75
74913;BME280;63878;55.624;37.304;2023-07-31T16:12:56;98318.38;;;20.82;41.58
74913;BME280;63878;55.624;37.304;2023-07-31T16:22:57;98313.91;;;20.76;41.99
74913;BME280;63878;55.624;37.304;2023-07-31T16:32:58;98317.25;;;20.65;42.66
74913;BME280;63878;55.624;37.304;2023-07-31T16:42:59;98322.84;;;20.63;42.61
74913;BME280;63878;55.624;37.304;2023-07-31T16:53:01;98324.31;;;20.59;42.69
74913;BME280;63878;55.624;37.304;2023-07-31T17:03:06;98334.75;;;20.49;43.16
74913;BME280;63878;55.624;37.304;2023-07-31T17:13:08;98339.22;;;20.30;43.94
74913;BME280;63878;55.624;37.304;2023-07-31T17:23:14;98357.72;;;20.00;45.52
74913;BME280;63878;55.624;37.304;2023-07-31T17:33:15;98361.22;;;18.98;47.27
74913;BME280;63878;55.624;37.304;2023-07-31T17:43:16;98380.34;;;19.01;46.40
74913;BME280;63878;55.624;37.304;2023-07-31T17:53:20;98393.72;;;19.08;50.68
74913;BME280;63878;55.624;37.304;2023-07-31T18:03:21;98397.44;;;18.67;52.48
74913;BME280;63878;55.624;37.304;2023-07-31T18:13:23;98417.56;;;18.43;52.05
74913;BME280;63878;55.624;37.304;2023-07-31T18:23:23;98415.19;;;17.87;53.82
74913;BME280;63878;55.624;37.304;2023-07-31T18:33:24;98374.13;;;17.95;54.12
74913;BME280;63878;55.624;37.304;2023-07-31T18:43:25;98411.97;;;18.31;52.58
74913;BME280;63878;55.624;37.304;2023-07-31T18:53:25;98415.25;;;18.33;53.51
74913;BME280;63878;55.624;37.304;2023-07-31T19:03:26;98408.47;;;18.24;53.65
74913;BME280;63878;55.624;37.304;2023-07-31T19:13:27;98421.59;;;18.13;55.20
74913;BME280;63878;55.624;37.304;2023-07-31T19:23:27;98398.97;;;17.95;54.02
74913;BME280;63878;55.624;37.304;2023-07-31T19:33:28;98426.94;;;18.13;52.89
74913;BME280;63878;55.624;37.304;2023-07-31T19:43:28;98431.19;;;17.87;54.18
74913;BME280;63878;55.624;37.304;2023-07-31T19:53:29;98437.69;;;17.78;54.80
74913;BME280;63878;55.624;37.304;2023-07-31T20:03:32;98433.69;;;17.54;55.69
74913;BME280;63878;55.624;37.304;2023-07-31T20:13:33;98435.47;;;17.47;56.23
74913;BME280;63878;55.624;37.304;2023-07-31T20:23:33;98435.03;;;17.37;55.08
74913;BME280;63878;55.624;37.304;2023-07-31T20:33:34;98439.44;;;17.23;55.46
74913;BME280;63878;55.624;37.304;2023-07-31T20:43:34;98442.31;;;17.21;54.96
74913;BME280;63878;55.624;37.304;2023-07-31T20:53:35;98446.69;;;17.29;55.28
74913;BME280;63878;55.624;37.304;2023-07-31T21:03:35;98440.69;;;17.20;54.80
74913;BME280;63878;55.624;37.304;2023-07-31T21:14:01;98435.97;;;16.73;56.50
74913;BME280;63878;55.624;37.304;2023-07-31T21:24:02;98439.66;;;17.21;54.64
74913;BME280;63878;55.624;37.304;2023-07-31T21:34:03;98428.00;;;17.01;55.36
74913;BME280;63878;55.624;37.304;2023-07-31T21:44:03;98435.44;;;16.84;55.74
74913;BME280;63878;55.624;37.304;2023-07-31T21:54:04;98427.34;;;16.71;56.14
74913;BME280;63878;55.624;37.304;2023-07-31T22:04:04;98430.50;;;16.60;56.67
74913;BME280;63878;55.624;37.304;2023-07-31T22:14:05;98420.81;;;16.52;56.99
74913;BME280;63878;55.624;37.304;2023-07-31T22:24:06;98409.88;;;16.40;56.88
74913;BME280;63878;55.624;37.304;2023-07-31T22:34:06;98418.53;;;16.28;57.41
74913;BME280;63878;55.624;37.304;2023-07-31T22:44:07;98414.25;;;16.12;57.90
74913;BME280;63878;55.624;37.304;2023-07-31T22:54:07;98428.63;;;15.96;58.83
74913;BME280;63878;55.624;37.304;2023-07-31T23:04:08;98417.72;;;15.91;59.05
74913;BME280;63878;55.624;37.304;2023-07-31T23:14:08;98427.63;;;15.97;59.03
74913;BME280;63878;55.624;37.304;2023-07-31T23:24:09;98426.78;;;15.97;58.67
74913;BME280;63878;55.624;37.304;2023-07-31T23:34:10;98422.59;;;15.73;59.89
74913;BME280;63878;55.624;37.304;2023-07-31T23:44:10;98438.38;;;15.89;59.34
74913;BME280;63878;55.624;37.304;2023-07-31T23:54:13;98437.19;;;15.77;59.76
